Time;durP1;ratioP1;P1;durP2;ratioP2;P2;SDS_P1;SDS_P2;PMS_P1;PMS_P2;Temp;Humidity;BMP_temperature;BMP_pressure;BME280_temperature;BME280_humidity;BME280_pressure;Samples;Min_cycle;Max_cycle;Signal;HPM_P1;HPM_P2
2021/06/26 00:01:11;;;;;;;23.60;21.43;;;14.20;99.90;;;;;;4999508;28;20485;-49
2021/06/26 00:03:41;;;;;;;27.70;24.73;;;14.20;99.90;;;;;;4992201;28;20591;-48
2021/06/26 00:06:10;;;;;;;26.63;24.30;;;14.10;99.90;;;;;;4999053;28;20487;-49
2021/06/26 00:08:40;;;;;;;25.60;23.20;;;14.10;99.90;;;;;;4999454;28;20472;-50
2021/06/26 00:11:08;;;;;;;24.10;21.87;;;14.00;99.90;;;;;;5001155;28;20472;-57
2021/06/26 00:13:37;;;;;;;25.73;23.30;;;14.00;99.90;;;;;;4999258;28;20473;-57
2021/06/26 00:16:05;;;;;;;24.87;22.47;;;13.90;99.90;;;;;;5000537;28;20559;-57
2021/06/26 00:18:32;;;;;;;25.03;22.73;;;14.00;99.90;;;;;;5000939;28;20811;-57
2021/06/26 00:21:00;;;;;;;25.77;23.40;;;13.90;99.90;;;;;;4999550;28;20488;-57
2021/06/26 00:23:27;;;;;;;25.13;22.83;;;13.90;99.90;;;;;;5000682;28;20781;-57
2021/06/26 00:25:54;;;;;;;25.40;22.90;;;13.90;99.90;;;;;;4998926;28;20484;-47
2021/06/26 00:28:21;;;;;;;25.07;22.77;;;13.90;99.90;;;;;;4994679;28;20469;-47
2021/06/26 00:30:48;;;;;;;24.27;21.87;;;13.90;99.90;;;;;;4999548;28;20483;-53
2021/06/26 00:33:15;;;;;;;25.47;23.00;;;13.90;99.90;;;;;;5000229;28;20470;-51
2021/06/26 00:35:43;;;;;;;27.63;25.10;;;13.80;99.90;;;;;;5000237;28;20464;-51
2021/06/26 00:38:11;;;;;;;25.13;22.63;;;13.90;99.90;;;;;;4991409;28;20784;-53
2021/06/26 00:40:38;;;;;;;25.80;23.40;;;13.80;99.90;;;;;;4993393;28;20454;-53
2021/06/26 00:43:05;;;;;;;25.47;23.07;;;13.80;99.90;;;;;;4991189;28;20506;-56
2021/06/26 00:45:32;;;;;;;25.57;22.80;;;13.70;99.90;;;;;;4999814;28;20468;-51
2021/06/26 00:48:05;;;;;;;25.60;23.20;;;13.70;99.90;;;;;;4999355;28;20475;-53
2021/06/26 00:50:33;;;;;;;23.30;21.17;;;13.70;99.90;;;;;;5003279;28;20488;-53
2021/06/26 00:53:00;;;;;;;24.33;21.93;;;13.60;99.90;;;;;;4999779;28;20497;-51
2021/06/26 00:55:29;;;;;;;26.07;23.17;;;13.60;99.90;;;;;;4998551;28;20477;-52
2021/06/26 00:57:58;;;;;;;27.10;24.50;;;13.50;99.90;;;;;;5000022;28;20477;-50
2021/06/26 01:00:26;;;;;;;26.53;24.03;;;13.50;99.90;;;;;;4999013;28;20477;-51
2021/06/26 01:02:55;;;;;;;25.80;23.50;;;13.50;99.90;;;;;;5000084;28;20499;-56
2021/06/26 01:05:23;;;;;;;26.90;24.23;;;13.50;99.90;;;;;;4991661;28;20468;-52
2021/06/26 01:07:53;;;;;;;26.17;23.80;;;13.50;99.90;;;;;;4995307;28;20468;-57
2021/06/26 01:10:21;;;;;;;25.57;22.87;;;13.40;99.90;;;;;;4998646;28;20473;-57
2021/06/26 01:12:52;;;;;;;26.03;23.43;;;13.40;99.90;;;;;;4998766;28;20454;-56
2021/06/26 01:15:19;;;;;;;25.63;23.27;;;13.40;99.90;;;;;;4999661;28;20896;-57
2021/06/26 01:17:49;;;;;;;26.23;23.73;;;13.40;99.90;;;;;;4999462;28;20758;-57
2021/06/26 01:20:20;;;;;;;27.67;24.77;;;13.30;99.90;;;;;;4999893;28;20587;-57
2021/06/26 01:22:54;;;;;;;26.33;23.83;;;13.30;99.90;;;;;;4999801;28;20878;-56
2021/06/26 01:25:24;;;;;;;27.20;24.63;;;13.20;99.90;;;;;;4999240;28;20754;-57
2021/06/26 01:27:52;;;;;;;26.13;23.63;;;13.20;99.90;;;;;;4998934;28;20927;-50
2021/06/26 01:30:24;;;;;;;25.57;23.13;;;13.20;99.90;;;;;;4998726;28;20484;-50
2021/06/26 01:32:53;;;;;;;26.10;23.40;;;13.20;99.90;;;;;;4999057;28;20476;-53
2021/06/26 01:35:24;;;;;;;26.93;24.13;;;13.20;99.90;;;;;;4999321;28;20923;-51
2021/06/26 01:37:52;;;;;;;28.27;25.50;;;13.10;99.90;;;;;;4998862;28;20570;-50
2021/06/26 01:40:21;;;;;;;27.30;24.60;;;13.10;99.90;;;;;;4999546;28;20509;-51
2021/06/26 01:42:52;;;;;;;27.30;24.70;;;13.10;99.90;;;;;;4999098;28;20469;-53
2021/06/26 01:45:20;;;;;;;27.33;24.63;;;13.10;99.90;;;;;;4998899;28;20487;-49
2021/06/26 01:47:48;;;;;;;26.07;23.77;;;13.00;99.90;;;;;;4998589;28;20567;-50
2021/06/26 01:50:17;;;;;;;27.73;24.93;;;13.00;99.90;;;;;;4999436;28;20443;-53
2021/06/26 01:52:45;;;;;;;25.30;22.90;;;13.00;99.90;;;;;;4999149;28;20505;-52
2021/06/26 01:55:14;;;;;;;27.23;24.53;;;13.00;99.90;;;;;;4998740;28;20518;-47
2021/06/26 01:57:42;;;;;;;26.50;23.90;;;13.00;99.90;;;;;;4997726;28;20458;-52
2021/06/26 02:37:17;;;;;;;26.20;23.67;;;12.70;99.90;;;;;;2640733;23;20595;-56
2021/06/26 02:39:44;;;;;;;27.50;24.80;;;12.70;99.90;;;;;;4998098;28;20496;-57
2021/06/26 02:42:16;;;;;;;28.20;25.20;;;12.60;99.90;;;;;;4998324;28;20901;-57
2021/06/26 02:44:43;;;;;;;28.63;25.77;;;12.60;99.90;;;;;;4998083;28;20475;-57
2021/06/26 02:47:11;;;;;;;28.97;26.17;;;12.60;99.90;;;;;;4997771;28;20544;-57
2021/06/26 02:49:39;;;;;;;27.70;24.80;;;12.70;99.90;;;;;;4997552;28;20440;-51
2021/06/26 02:52:06;;;;;;;28.90;25.90;;;12.70;99.90;;;;;;4998160;28;20527;-55
2021/06/26 02:54:38;;;;;;;26.83;24.13;;;12.70;99.90;;;;;;4998191;28;20564;-54
2021/06/26 02:57:06;;;;;;;28.40;25.70;;;12.70;99.90;;;;;;4997570;28;20564;-54
2021/06/26 02:59:33;;;;;;;28.67;25.73;;;12.60;99.90;;;;;;4997387;28;20508;-54
2021/06/26 03:02:06;;;;;;;27.07;24.57;;;12.60;99.90;;;;;;4997753;28;20475;-52
2021/06/26 03:04:33;;;;;;;29.07;26.23;;;12.60;99.90;;;;;;5217925;23;20543;-57
2021/06/26 03:07:00;;;;;;;29.00;26.00;;;12.60;99.90;;;;;;4989281;28;20453;-58
2021/06/26 03:09:27;;;;;;;27.37;24.77;;;12.60;99.90;;;;;;4992376;28;20504;-58
2021/06/26 03:11:56;;;;;;;26.73;24.30;;;12.60;99.90;;;;;;4997906;28;20481;-58
2021/06/26 03:14:23;;;;;;;27.63;24.83;;;12.50;99.90;;;;;;4993445;28;20480;-57
2021/06/26 03:16:50;;;;;;;26.30;23.80;;;12.50;99.90;;;;;;4997982;28;20498;-53
2021/06/26 03:19:17;;;;;;;27.13;24.50;;;12.50;99.90;;;;;;4997304;28;20496;-51
2021/06/26 03:21:46;;;;;;;29.17;26.17;;;12.50;99.90;;;;;;4996639;28;20480;-53
2021/06/26 03:24:13;;;;;;;28.57;25.77;;;12.40;99.90;;;;;;4997024;28;20470;-51
2021/06/26 03:26:41;;;;;;;29.70;24.80;;;12.50;99.90;;;;;;4997884;28;20473;-50
2021/06/26 03:29:09;;;;;;;28.27;25.27;;;12.50;99.90;;;;;;4997702;28;20985;-53
2021/06/26 03:31:36;;;;;;;27.50;23.93;;;12.50;99.90;;;;;;4997398;28;20476;-50
2021/06/26 03:34:04;;;;;;;28.13;25.40;;;12.50;99.90;;;;;;4997155;28;20473;-52
2021/06/26 03:36:31;;;;;;;33.00;27.50;;;12.50;99.90;;;;;;4997722;28;20469;-50
2021/06/26 03:38:58;;;;;;;28.10;25.20;;;12.50;99.90;;;;;;4995994;28;20524;-56
2021/06/26 03:41:26;;;;;;;28.90;25.93;;;12.60;99.90;;;;;;4997464;28;20531;-49
2021/06/26 03:43:55;;;;;;;29.67;26.57;;;12.60;99.90;;;;;;4997173;28;20515;-56
2021/06/26 03:46:24;;;;;;;29.53;26.67;;;12.60;99.90;;;;;;4997368;28;20479;-53
2021/06/26 03:48:54;;;;;;;28.77;25.80;;;12.60;99.90;;;;;;4997793;28;20860;-57
2021/06/26 03:51:21;;;;;;;29.27;26.27;;;12.70;99.90;;;;;;4997231;28;20512;-55
2021/06/26 03:53:49;;;;;;;28.20;25.40;;;12.70;99.90;;;;;;4989775;28;20476;-52
2021/06/26 03:56:16;;;;;;;30.60;25.67;;;12.70;99.90;;;;;;4990977;28;20472;-55
2021/06/26 03:58:46;;;;;;;27.60;24.87;;;12.70;99.90;;;;;;4997340;28;20468;-58
2021/06/26 04:01:13;;;;;;;29.60;26.40;;;12.70;99.90;;;;;;4992058;28;20469;-58
2021/06/26 04:03:42;;;;;;;28.80;25.80;;;12.70;99.90;;;;;;4990433;28;20825;-56
2021/06/26 04:06:09;;;;;;;30.23;27.23;;;12.80;99.90;;;;;;4990973;28;20508;-54
2021/06/26 04:08:36;;;;;;;28.90;25.80;;;12.80;99.90;;;;;;4997157;28;20460;-54
2021/06/26 04:11:03;;;;;;;28.83;26.03;;;12.90;99.90;;;;;;4996679;28;20758;-50
2021/06/26 04:13:30;;;;;;;27.93;25.27;;;12.90;99.90;;;;;;4996814;28;20461;-49
2021/06/26 04:15:57;;;;;;;28.73;25.63;;;13.00;99.90;;;;;;4997032;28;20465;-51
2021/06/26 04:18:24;;;;;;;31.07;27.90;;;13.00;99.90;;;;;;5000016;28;20468;-50
2021/06/26 04:20:53;;;;;;;29.33;26.33;;;13.00;99.90;;;;;;5000394;28;20523;-49
2021/06/26 04:23:20;;;;;;;29.80;26.60;;;13.10;99.90;;;;;;5001201;28;20464;-54
2021/06/26 04:25:52;;;;;;;27.67;24.87;;;13.20;99.90;;;;;;5000354;28;20526;-53
2021/06/26 04:28:19;;;;;;;28.17;25.17;;;13.20;99.90;;;;;;5000927;28;20478;-49
2021/06/26 04:30:46;;;;;;;29.43;26.33;;;13.20;99.90;;;;;;5000478;28;20450;-47
2021/06/26 04:33:13;;;;;;;30.33;27.07;;;13.30;99.90;;;;;;4999980;28;20468;-52
2021/06/26 04:35:40;;;;;;;33.77;27.80;;;13.30;99.90;;;;;;5000025;28;20464;-53
2021/06/26 04:38:08;;;;;;;31.73;28.37;;;13.40;99.90;;;;;;5000497;28;20469;-51
2021/06/26 04:40:35;;;;;;;30.60;27.30;;;13.50;99.90;;;;;;5000104;28;20520;-50
2021/06/26 04:43:04;;;;;;;32.50;29.03;;;13.60;99.90;;;;;;5000069;28;20473;-51
2021/06/26 04:45:34;;;;;;;31.07;27.77;;;13.70;99.90;;;;;;5000157;28;20540;-45
2021/06/26 04:48:01;;;;;;;31.70;28.40;;;13.80;99.90;;;;;;4999986;28;20468;-51
2021/06/26 04:50:29;;;;;;;31.47;28.27;;;13.90;99.90;;;;;;5000498;28;20761;-47
2021/06/26 04:52:56;;;;;;;31.30;28.20;;;14.00;99.90;;;;;;5000374;28;20473;-46
2021/06/26 04:55:26;;;;;;;29.27;26.20;;;14.10;99.90;;;;;;4999936;28;20468;-45
2021/06/26 04:57:53;;;;;;;29.80;26.80;;;14.20;99.90;;;;;;5000428;28;20576;-49
2021/06/26 05:00:21;;;;;;;29.37;26.13;;;14.20;99.90;;;;;;4999964;28;20835;-53
2021/06/26 05:02:48;;;;;;;29.50;26.53;;;14.30;99.90;;;;;;4995526;28;20499;-51
2021/06/26 05:05:15;;;;;;;28.83;26.03;;;14.30;99.90;;;;;;4990948;28;20501;-51
2021/06/26 05:07:46;;;;;;;31.07;27.97;;;14.50;99.90;;;;;;4999713;28;20460;-50
2021/06/26 05:10:14;;;;;;;30.17;27.17;;;14.70;99.90;;;;;;4999996;28;20531;-45
2021/06/26 05:12:44;;;;;;;32.70;27.83;;;14.90;99.90;;;;;;4999538;28;20480;-45
2021/06/26 05:15:12;;;;;;;29.90;27.00;;;15.10;99.90;;;;;;4999288;28;20472;-46
2021/06/26 05:17:39;;;;;;;30.60;27.50;;;15.30;99.90;;;;;;4999827;28;20488;-47
2021/06/26 05:20:07;;;;;;;31.67;28.67;;;15.40;99.90;;;;;;4999610;28;20752;-48
2021/06/26 06:02:10;;;;;;;35.53;32.03;;;17.60;99.90;;;;;;4707677;23;20484;-46
2021/06/26 06:04:38;;;;;;;39.67;30.27;;;17.70;99.90;;;;;;4989462;28;20473;-50
2021/06/26 06:07:06;;;;;;;42.60;35.30;;;17.70;99.90;;;;;;4997503;28;20465;-49
2021/06/26 06:09:33;;;;;;;48.50;34.73;;;17.60;99.90;;;;;;4998532;28;20469;-52
2021/06/26 06:12:00;;;;;;;49.03;35.80;;;17.70;99.90;;;;;;4998512;28;20469;-51
2021/06/26 06:14:27;;;;;;;52.87;34.77;;;17.80;99.90;;;;;;4997854;28;20881;-48
2021/06/26 06:16:54;;;;;;;46.23;33.83;;;17.80;99.90;;;;;;4998931;28;20476;-49
2021/06/26 06:19:23;;;;;;;42.93;34.20;;;17.90;99.90;;;;;;4998173;28;20469;-50
2021/06/26 06:21:53;;;;;;;46.03;36.13;;;18.30;99.90;;;;;;4994627;28;20467;-55
2021/06/26 06:24:20;;;;;;;37.00;31.37;;;18.50;99.90;;;;;;4998801;28;20450;-52
2021/06/26 06:26:47;;;;;;;34.00;30.53;;;18.80;99.90;;;;;;4998677;28;20473;-48
2021/06/26 06:29:14;;;;;;;33.50;29.60;;;19.10;99.90;;;;;;4997488;28;20500;-50
2021/06/26 06:31:41;;;;;;;31.20;27.30;;;19.40;99.90;;;;;;4997868;28;20476;-53
2021/06/26 06:34:11;;;;;;;25.80;23.00;;;19.70;99.90;;;;;;4998317;28;20475;-57
2021/06/26 06:36:39;;;;;;;28.63;23.00;;;20.00;99.90;;;;;;4998371;28;20893;-56
2021/06/26 06:39:06;;;;;;;28.30;25.30;;;20.20;99.90;;;;;;4998015;28;20761;-56
2021/06/26 06:41:33;;;;;;;27.70;24.77;;;20.40;99.90;;;;;;4996991;28;20572;-53
2021/06/26 06:44:01;;;;;;;25.30;22.90;;;20.80;99.90;;;;;;4997946;28;20469;-54
2021/06/26 06:46:32;;;;;;;29.33;25.40;;;21.10;99.90;;;;;;4996095;28;20916;-49
2021/06/26 06:48:59;;;;;;;27.53;24.70;;;21.50;99.90;;;;;;4997562;28;20489;-48
2021/06/26 06:51:26;;;;;;;26.27;23.77;;;21.70;99.90;;;;;;4997477;28;20465;-51
2021/06/26 06:53:58;;;;;;;22.80;20.70;;;22.20;99.90;;;;;;4997839;28;20468;-46
2021/06/26 06:56:27;;;;;;;22.50;20.30;;;21.90;98.00;;;;;;4997548;28;20810;-47
2021/06/26 06:58:54;;;;;;;22.07;19.87;;;22.50;99.90;;;;;;4997446;28;20477;-48
2021/06/26 07:01:21;;;;;;;21.03;19.03;;;22.80;96.50;;;;;;4997248;28;20500;-49
2021/06/26 07:03:48;;;;;;;22.83;20.43;;;23.00;95.00;;;;;;4981104;28;20482;-48
2021/06/26 07:06:15;;;;;;;18.97;17.27;;;23.20;93.10;;;;;;4992576;28;20473;-45
2021/06/26 07:08:42;;;;;;;16.93;14.87;;;23.40;91.90;;;;;;4991097;28;20551;-49
2021/06/26 07:11:11;;;;;;;14.60;13.30;;;23.40;86.60;;;;;;4983696;28;20826;-48
2021/06/26 07:13:41;;;;;;;13.37;12.37;;;23.40;84.00;;;;;;4990847;28;20461;-50
2021/06/26 07:16:09;;;;;;;12.80;11.67;;;23.40;85.30;;;;;;4997650;28;20472;-55
2021/06/26 07:18:39;;;;;;;12.83;11.83;;;23.50;84.20;;;;;;4997942;28;20447;-54
2021/06/26 07:21:08;;;;;;;13.93;12.53;;;23.70;86.90;;;;;;4998200;28;20802;-49
2021/06/26 07:23:35;;;;;;;14.20;12.90;;;23.80;85.40;;;;;;4997229;28;20464;-46
2021/06/26 07:26:02;;;;;;;13.70;12.70;;;24.00;81.10;;;;;;4997546;28;20472;-50
2021/06/26 07:28:31;;;;;;;13.80;12.63;;;23.90;80.70;;;;;;4997587;28;20901;-55
2021/06/26 07:30:58;;;;;;;12.47;11.50;;;24.00;81.40;;;;;;4997738;28;20465;-55
2021/06/26 07:33:25;;;;;;;13.10;12.00;;;24.40;80.90;;;;;;4997534;28;20469;-55
2021/06/26 07:35:52;;;;;;;14.07;12.90;;;24.50;79.70;;;;;;4998010;28;20473;-48
2021/06/26 07:38:19;;;;;;;14.47;13.37;;;24.40;78.80;;;;;;4997726;28;20464;-55
2021/06/26 07:40:46;;;;;;;13.40;12.10;;;24.70;80.20;;;;;;4997114;28;20975;-49
2021/06/26 08:19:33;;;;;;;10.57;9.87;;;26.30;59.70;;;;;;5430500;23;20512;-51
2021/06/26 08:22:04;;;;;;;11.07;9.87;;;26.40;62.40;;;;;;4977331;28;20983;-49
2021/06/26 08:24:31;;;;;;;9.80;9.00;;;26.30;61.10;;;;;;4981849;28;20894;-50
2021/06/26 08:27:02;;;;;;;9.70;8.90;;;26.40;60.40;;;;;;4981478;28;20477;-46
2021/06/26 08:29:31;;;;;;;9.20;8.60;;;26.40;61.20;;;;;;4981101;28;20470;-48
2021/06/26 08:31:58;;;;;;;10.30;9.60;;;26.80;61.90;;;;;;4981592;28;20524;-48
2021/06/26 08:34:25;;;;;;;12.03;8.87;;;27.40;57.10;;;;;;4980698;28;20472;-45
2021/06/26 08:36:57;;;;;;;10.30;9.33;;;27.30;58.00;;;;;;4980438;28;20572;-46
2021/06/26 09:16:16;;;;;;;8.33;7.73;;;29.40;50.40;;;;;;5368868;23;21761;-55
2021/06/26 09:18:46;;;;;;;9.07;8.53;;;29.50;49.50;;;;;;5000039;28;20449;-51
2021/06/26 09:21:22;;;;;;;8.70;8.10;;;29.50;48.20;;;;;;4999680;28;20501;-49
2021/06/26 09:24:00;;;;;;;7.97;7.27;;;29.60;49.40;;;;;;5000065;28;20547;-48
2021/06/26 09:26:27;;;;;;;9.00;8.30;;;30.10;48.10;;;;;;4999654;28;20829;-46
2021/06/26 09:28:55;;;;;;;7.47;6.77;;;30.00;48.10;;;;;;4999850;28;20469;-47
2021/06/26 09:31:31;;;;;;;8.20;7.60;;;30.00;47.80;;;;;;4998929;28;20472;-47
2021/06/26 09:34:00;;;;;;;7.33;6.87;;;30.00;44.10;;;;;;4999684;28;20472;-49
2021/06/26 09:36:31;;;;;;;7.90;7.40;;;30.00;48.00;;;;;;4998784;28;20878;-47
2021/06/26 09:39:00;;;;;;;8.03;7.43;;;29.60;45.10;;;;;;4999324;28;20896;-53
2021/06/26 09:41:28;;;;;;;8.87;8.27;;;28.70;46.90;;;;;;4998761;28;20532;-52
2021/06/26 09:44:09;;;;;;;8.97;8.17;;;27.70;47.90;;;;;;4999341;28;20464;-49
2021/06/26 09:46:47;;;;;;;8.77;8.07;;;27.10;47.70;;;;;;4999263;28;20484;-54
2021/06/26 09:49:14;;;;;;;8.07;7.57;;;26.60;50.10;;;;;;4999535;28;20891;-47
2021/06/26 09:51:41;;;;;;;8.80;7.97;;;27.50;49.60;;;;;;4994147;28;20476;-47
2021/06/26 09:54:09;;;;;;;8.87;7.90;;;28.80;48.50;;;;;;4998325;28;20729;-48
2021/06/26 09:56:42;;;;;;;8.50;7.90;;;29.60;46.00;;;;;;4998564;28;20464;-49
2021/06/26 09:59:10;;;;;;;8.97;8.37;;;30.00;44.80;;;;;;4998223;28;20496;-49
2021/06/26 10:01:41;;;;;;;7.73;7.17;;;30.10;45.60;;;;;;4998582;28;20802;-47
2021/06/26 10:04:12;;;;;;;9.10;8.37;;;29.50;44.80;;;;;;4988629;28;20521;-48
2021/06/26 10:06:40;;;;;;;9.40;8.60;;;29.20;45.70;;;;;;4995936;28;20465;-47
2021/06/26 10:09:08;;;;;;;9.33;8.63;;;29.40;45.00;;;;;;4998138;28;20475;-49
2021/06/26 10:11:37;;;;;;;7.80;7.30;;;29.80;45.00;;;;;;4998017;28;20523;-53
2021/06/26 10:14:06;;;;;;;8.53;7.80;;;30.50;43.60;;;;;;4998153;28;20479;-51
2021/06/26 10:16:34;;;;;;;8.60;7.90;;;30.00;44.10;;;;;;4990283;28;20498;-53
2021/06/26 10:19:02;;;;;;;8.47;7.83;;;30.30;44.10;;;;;;4977574;28;20489;-49
2021/06/26 10:21:31;;;;;;;7.37;6.87;;;29.90;43.40;;;;;;4978071;28;20498;-50
2021/06/26 10:24:00;;;;;;;7.70;7.10;;;30.30;44.10;;;;;;4979369;28;20473;-53
2021/06/26 10:26:36;;;;;;;8.83;8.13;;;29.90;44.80;;;;;;4979224;28;20770;-50
2021/06/26 10:29:06;;;;;;;7.60;7.00;;;29.50;44.20;;;;;;4978757;28;20472;-47
2021/06/26 11:09:14;;;;;;;7.53;6.97;;;29.20;44.90;;;;;;5190056;23;20488;-47
2021/06/26 11:11:43;;;;;;;7.53;7.00;;;29.90;45.60;;;;;;4992197;28;20464;-54
2021/06/26 11:14:19;;;;;;;8.57;7.80;;;30.70;46.40;;;;;;4993396;28;20469;-53
2021/06/26 11:16:52;;;;;;;8.33;7.73;;;31.40;42.10;;;;;;4997309;28;20472;-51
2021/06/26 11:19:21;;;;;;;9.17;8.47;;;29.30;44.80;;;;;;4997584;28;20472;-53
2021/06/26 11:21:53;;;;;;;7.57;6.97;;;28.90;43.60;;;;;;4995666;28;20492;-52
2021/06/26 11:24:35;;;;;;;8.43;7.77;;;28.50;45.30;;;;;;4996380;28;20468;-52
2021/06/26 11:27:02;;;;;;;14.07;9.37;;;28.10;45.80;;;;;;4998127;28;21574;-57
2021/06/26 11:29:33;;;;;;;8.60;8.00;;;27.60;45.80;;;;;;5003437;28;20488;-53
2021/06/26 11:32:02;;;;;;;9.20;8.60;;;27.60;45.70;;;;;;5003808;28;20563;-52
2021/06/26 11:34:34;;;;;;;10.30;9.60;;;27.60;47.40;;;;;;4997850;28;20469;-53
2021/06/26 11:37:06;;;;;;;8.93;8.27;;;28.20;47.20;;;;;;5002961;28;20464;-53
2021/06/26 11:39:35;;;;;;;7.43;6.93;;;29.50;47.90;;;;;;5003259;28;20465;-56
2021/06/26 11:42:14;;;;;;;7.93;7.23;;;29.70;44.60;;;;;;5003299;28;20505;-57
2021/06/26 11:44:41;;;;;;;8.93;8.20;;;29.30;44.40;;;;;;5003210;28;20472;-54
2021/06/26 11:47:09;;;;;;;8.17;7.67;;;28.90;45.00;;;;;;5003336;28;20476;-55
2021/06/26 11:49:39;;;;;;;8.87;8.17;;;28.30;45.80;;;;;;5003192;28;20476;-54
2021/06/26 11:52:13;;;;;;;9.20;8.40;;;28.10;47.00;;;;;;5003305;28;20889;-54
2021/06/26 11:54:43;;;;;;;7.93;7.30;;;28.10;47.00;;;;;;5003867;28;20479;-56
2021/06/26 11:57:14;;;;;;;9.10;8.23;;;28.00;46.20;;;;;;5004106;28;20465;-51
2021/06/26 11:59:46;;;;;;;8.27;7.67;;;27.70;47.30;;;;;;5003524;28;20472;-56
2021/06/26 12:02:14;;;;;;;8.60;8.03;;;27.80;47.90;;;;;;5003691;28;20523;-56
2021/06/26 12:04:45;;;;;;;9.13;8.43;;;27.90;48.10;;;;;;4993660;28;20491;-55
2021/06/26 12:07:13;;;;;;;8.47;7.87;;;28.00;47.40;;;;;;5003156;28;20472;-55
2021/06/26 12:09:43;;;;;;;8.73;7.83;;;28.20;47.60;;;;;;5002977;28;20499;-57
2021/06/26 12:12:11;;;;;;;9.13;8.30;;;28.10;47.80;;;;;;5003330;28;20460;-58
2021/06/26 12:14:40;;;;;;;8.17;7.57;;;27.60;46.90;;;;;;5003380;28;20468;-56
2021/06/26 12:17:13;;;;;;;8.90;8.10;;;27.80;49.30;;;;;;5003297;28;20479;-57
2021/06/26 12:19:41;;;;;;;8.97;8.20;;;28.00;47.60;;;;;;5003626;28;20835;-48
2021/06/26 12:22:09;;;;;;;8.23;7.53;;;28.60;49.60;;;;;;5003150;28;20496;-55
2021/06/26 12:24:40;;;;;;;7.60;7.10;;;29.40;46.10;;;;;;5003294;28;20479;-53
2021/06/26 12:27:12;;;;;;;8.10;7.40;;;30.20;45.40;;;;;;5003238;28;20465;-54
2021/06/26 12:29:45;;;;;;;7.30;6.70;;;30.40;44.80;;;;;;5003086;28;20536;-52
2021/06/26 12:32:26;;;;;;;9.00;8.30;;;30.30;43.80;;;;;;5003071;28;20465;-54
2021/06/26 12:34:56;;;;;;;9.57;8.87;;;29.80;44.20;;;;;;5003847;28;20724;-52
2021/06/26 12:37:31;;;;;;;8.20;7.60;;;29.00;43.90;;;;;;5003217;28;20499;-56
2021/06/26 12:40:06;;;;;;;8.57;7.97;;;28.60;45.00;;;;;;5000189;28;20461;-54
2021/06/26 12:42:37;;;;;;;9.33;8.53;;;28.60;46.30;;;;;;5000112;28;20500;-52
2021/06/26 12:45:06;;;;;;;8.30;7.70;;;28.30;46.80;;;;;;4999689;28;20475;-56
2021/06/26 12:47:33;;;;;;;8.97;8.07;;;28.40;47.10;;;;;;5000020;28;20473;-52
2021/06/26 12:50:05;;;;;;;8.63;7.90;;;28.50;46.70;;;;;;5000212;28;20447;-56
2021/06/26 12:52:32;;;;;;;8.03;7.50;;;28.60;46.50;;;;;;5000514;28;20504;-53
2021/06/26 12:55:01;;;;;;;9.20;8.50;;;28.40;45.80;;;;;;5000749;28;20760;-49
2021/06/26 12:57:40;;;;;;;8.30;7.50;;;28.60;47.40;;;;;;5000050;28;20925;-53
2021/06/26 13:00:25;;;;;;;9.03;8.40;;;30.10;46.00;;;;;;5000091;28;20469;-49
2021/06/26 13:40:37;;;;;;;8.33;7.73;;;27.80;48.10;;;;;;4765298;23;20493;-57
2021/06/26 13:43:05;;;;;;;7.87;7.37;;;27.90;49.10;;;;;;4999482;28;20500;-53
2021/06/26 13:45:32;;;;;;;8.70;8.10;;;28.30;48.40;;;;;;4998236;28;20469;-57
2021/06/26 13:47:59;;;;;;;11.40;10.20;;;28.10;47.50;;;;;;4999087;28;20911;-57
2021/06/26 13:50:26;;;;;;;8.63;8.03;;;27.80;48.10;;;;;;4998826;28;20468;-51
2021/06/26 13:52:53;;;;;;;9.53;8.83;;;27.50;49.50;;;;;;4993013;28;20442;-46
2021/06/26 13:55:26;;;;;;;9.83;8.93;;;28.20;49.80;;;;;;4992802;28;20469;-52
2021/06/26 13:57:54;;;;;;;9.20;8.50;;;28.90;48.30;;;;;;4993467;28;20468;-51
2021/06/26 14:00:23;;;;;;;8.47;7.87;;;29.40;47.50;;;;;;4998448;28;20535;-57
2021/06/26 14:02:52;;;;;;;8.90;8.27;;;29.60;45.70;;;;;;4994883;28;20505;-56
2021/06/26 14:05:19;;;;;;;8.70;8.10;;;29.10;45.60;;;;;;4992236;28;20780;-58
2021/06/26 14:07:46;;;;;;;8.50;8.00;;;29.10;46.20;;;;;;4998145;28;20808;-56
2021/06/26 14:10:13;;;;;;;10.03;9.33;;;28.70;46.60;;;;;;4998018;28;20472;-56
2021/06/26 14:12:40;;;;;;;10.00;9.17;;;28.40;47.80;;;;;;4999143;28;20866;-56
2021/06/26 14:15:10;;;;;;;9.70;8.90;;;27.90;48.20;;;;;;4997930;28;20469;-51
2021/06/26 14:17:40;;;;;;;9.10;8.50;;;27.60;47.90;;;;;;4998511;28;20480;-51
2021/06/26 14:20:08;;;;;;;9.67;9.07;;;27.10;48.20;;;;;;4998369;28;20917;-54
2021/06/26 14:22:38;;;;;;;9.60;9.00;;;27.00;49.20;;;;;;4998584;28;20503;-56
2021/06/26 14:25:07;;;;;;;9.53;8.93;;;27.00;49.50;;;;;;4998766;28;20468;-52
2021/06/26 14:27:34;;;;;;;9.07;8.43;;;27.60;50.20;;;;;;4998365;28;20551;-57
2021/06/26 14:30:01;;;;;;;9.47;8.60;;;28.60;47.60;;;;;;5001041;28;20475;-58
2021/06/26 14:32:30;;;;;;;9.17;8.47;;;29.20;47.00;;;;;;4998641;28;20912;-57
2021/06/26 14:34:57;;;;;;;8.40;7.90;;;29.20;45.50;;;;;;4998430;28;20560;-51
2021/06/26 14:37:27;;;;;;;8.50;7.97;;;29.30;45.70;;;;;;4998299;28;20469;-55
2021/06/26 14:39:54;;;;;;;9.90;9.20;;;29.50;47.20;;;;;;4996595;28;20493;-54
2021/06/26 14:42:22;;;;;;;8.53;7.60;;;29.60;44.50;;;;;;4997999;28;20527;-56
2021/06/26 14:44:51;;;;;;;8.97;8.37;;;30.00;44.80;;;;;;4998150;28;20480;-54
2021/06/26 14:47:18;;;;;;;9.33;8.70;;;30.20;45.10;;;;;;4998120;28;20571;-54
2021/06/26 14:49:48;;;;;;;10.23;9.43;;;29.60;46.50;;;;;;4998506;28;20473;-57
2021/06/26 14:52:18;;;;;;;10.77;10.07;;;29.10;46.80;;;;;;4998255;28;20465;-52
2021/06/26 14:54:45;;;;;;;10.63;9.93;;;28.60;47.80;;;;;;4998229;28;20481;-57
2021/06/26 14:57:13;;;;;;;11.07;10.07;;;28.00;48.50;;;;;;4998002;28;20817;-53
2021/06/26 14:59:40;;;;;;;9.40;8.80;;;27.60;49.40;;;;;;4997880;28;20477;-51
2021/06/26 15:02:11;;;;;;;10.20;9.40;;;27.30;50.20;;;;;;4996656;28;20503;-52
2021/06/26 15:04:40;;;;;;;10.10;9.37;;;27.10;50.70;;;;;;4986154;28;20913;-54
2021/06/26 15:07:10;;;;;;;9.83;9.13;;;27.10;49.90;;;;;;4995469;28;20461;-55
2021/06/26 15:09:37;;;;;;;10.30;9.60;;;26.60;49.80;;;;;;4994927;28;20464;-56
2021/06/26 15:12:07;;;;;;;10.77;9.97;;;26.40;50.50;;;;;;4997642;28;20472;-54
2021/06/26 15:14:34;;;;;;;10.33;9.50;;;26.70;50.80;;;;;;4997474;28;20810;-51
2021/06/26 15:17:03;;;;;;;9.60;8.90;;;26.90;51.30;;;;;;4997751;28;20476;-49
2021/06/26 15:19:30;;;;;;;9.53;8.83;;;26.80;50.60;;;;;;4997948;28;20809;-54
2021/06/26 15:21:59;;;;;;;9.33;8.63;;;26.60;50.30;;;;;;4996978;28;20492;-51
2021/06/26 15:24:29;;;;;;;10.30;9.40;;;26.70;49.80;;;;;;4997808;28;20473;-54
2021/06/26 15:26:56;;;;;;;9.97;9.20;;;26.90;50.40;;;;;;4997944;28;20507;-54
2021/06/26 15:29:23;;;;;;;10.10;9.40;;;26.90;49.90;;;;;;4997370;28;20479;-52
2021/06/26 15:31:51;;;;;;;9.97;9.27;;;27.20;51.20;;;;;;4996470;28;20769;-57
2021/06/26 16:12:25;;;;;;;10.03;9.33;;;26.30;51.70;;;;;;5011163;23;20484;-50
2021/06/26 16:14:52;;;;;;;10.40;9.60;;;26.50;52.50;;;;;;4983089;28;20469;-50
2021/06/26 16:17:19;;;;;;;10.60;9.70;;;26.50;52.60;;;;;;4981870;28;20882;-48
2021/06/26 16:19:46;;;;;;;11.07;10.17;;;26.30;53.00;;;;;;4981706;28;20469;-53
2021/06/26 16:22:16;;;;;;;10.70;10.00;;;26.30;53.40;;;;;;4980444;28;20517;-49
2021/06/26 16:24:44;;;;;;;12.13;11.23;;;26.30;54.10;;;;;;4981564;28;20473;-48
2021/06/26 16:27:11;;;;;;;15.03;14.00;;;26.20;53.70;;;;;;4981326;28;20466;-50
2021/06/26 16:29:40;;;;;;;16.97;15.57;;;26.10;54.70;;;;;;4981556;28;20881;-55
2021/06/26 16:32:08;;;;;;;10.53;9.73;;;26.10;54.40;;;;;;4981179;28;20529;-48
2021/06/26 16:34:37;;;;;;;11.50;10.57;;;26.00;54.10;;;;;;4981716;28;20544;-53
2021/06/26 16:37:06;;;;;;;10.23;9.53;;;26.00;54.40;;;;;;4981577;28;20489;-53
2021/06/26 16:39:34;;;;;;;11.23;10.43;;;26.00;54.40;;;;;;4980422;28;20560;-48
2021/06/26 16:42:05;;;;;;;10.10;9.20;;;26.50;53.80;;;;;;4988780;28;20503;-54
2021/06/26 16:44:32;;;;;;;10.10;9.40;;;27.10;53.40;;;;;;4977132;28;20972;-46
2021/06/26 16:47:06;;;;;;;9.73;9.13;;;27.60;51.90;;;;;;4974984;28;20473;-48
2021/06/26 16:49:36;;;;;;;10.03;9.33;;;27.90;51.30;;;;;;4978555;28;20890;-51
2021/06/26 16:52:04;;;;;;;9.90;9.20;;;28.00;50.40;;;;;;4981183;28;20472;-53
2021/06/26 16:54:31;;;;;;;9.50;8.73;;;28.10;49.90;;;;;;4981442;28;20473;-52
2021/06/26 16:56:58;;;;;;;9.63;8.77;;;27.90;49.60;;;;;;4975056;28;20470;-48
2021/06/26 16:59:28;;;;;;;9.70;9.00;;;27.60;50.50;;;;;;4999471;28;20908;-53
2021/06/26 17:01:56;;;;;;;9.23;8.63;;;27.60;50.80;;;;;;4980453;28;20477;-48
2021/06/26 17:04:24;;;;;;;8.93;8.33;;;27.30;50.50;;;;;;4972383;28;20477;-48
2021/06/26 17:06:51;;;;;;;9.77;8.73;;;26.90;50.30;;;;;;4972163;28;20465;-48